Amherst Junction, Wisconsin
Current Conditions -  °F | °C
As of 5:55 PM on Saturday 22 Nov 2014 (Local Time) from KSTE Reporting Station
Haze Haze  
Wind Chill:   Ceiling: 300
Heat Index:   Visibility: 2mi
Dew Point:   Wind: 3mph
Humidity: 99%   Direction: 170°S
Pressure: 29.75"   Gusts: NA
Location:  44.47°N, 89.31°W
Report Text: KSTE 222355Z AUTO 17003KT 2SM BR OVC003 01/01 A2975 RMK AO2 T00110010 10015 20001
Loading
Personal Weather Stations






























Interactive Weather Map New forecast layout! Learn more

10-Day Weather Forecast

Advertisements
Track Severe Weather on mobile